sensor_id;sensor_type;location;lat;lon;timestamp;P1;durP1;ratioP1;P2;durP2;ratioP2
25249;SDS011;13201;51.148;13.738;2024-03-23T00:54:10;13.80;;;9.10;;
25249;SDS011;13201;51.148;13.738;2024-03-23T00:56:35;15.32;;;9.68;;
25249;SDS011;13201;51.148;13.738;2024-03-23T00:59:01;15.18;;;9.85;;
25249;SDS011;13201;51.148;13.738;2024-03-23T01:01:26;16.10;;;10.38;;
25249;SDS011;13201;51.148;13.738;2024-03-23T01:27:38;17.75;;;9.95;;
25249;SDS011;13201;51.148;13.738;2024-03-23T01:30:04;19.63;;;11.23;;
25249;SDS011;13201;51.148;13.738;2024-03-23T01:32:30;17.17;;;10.63;;
25249;SDS011;13201;51.148;13.738;2024-03-23T01:34:56;22.65;;;12.10;;
25249;SDS011;13201;51.148;13.738;2024-03-23T01:37:21;20.55;;;11.93;;
25249;SDS011;13201;51.148;13.738;2024-03-23T01:39:47;24.15;;;12.68;;
25249;SDS011;13201;51.148;13.738;2024-03-23T01:42:13;22.88;;;13.45;;
25249;SDS011;13201;51.148;13.738;2024-03-23T01:44:38;24.13;;;13.90;;
25249;SDS011;13201;51.148;13.738;2024-03-23T01:47:04;20.15;;;12.63;;
25249;SDS011;13201;51.148;13.738;2024-03-23T01:49:31;17.23;;;11.45;;
25249;SDS011;13201;51.148;13.738;2024-03-23T01:51:58;19.43;;;12.27;;
25249;SDS011;13201;51.148;13.738;2024-03-23T01:54:24;19.80;;;12.30;;
25249;SDS011;13201;51.148;13.738;2024-03-23T01:56:50;19.35;;;11.68;;
25249;SDS011;13201;51.148;13.738;2024-03-23T01:59:16;17.02;;;10.68;;
25249;SDS011;13201;51.148;13.738;2024-03-23T02:01:42;15.93;;;10.80;;
25249;SDS011;13201;51.148;13.738;2024-03-23T02:04:07;19.30;;;11.90;;
25249;SDS011;13201;51.148;13.738;2024-03-23T02:06:34;24.42;;;12.88;;
25249;SDS011;13201;51.148;13.738;2024-03-23T02:09:00;19.00;;;11.48;;
25249;SDS011;13201;51.148;13.738;2024-03-23T02:11:26;19.10;;;11.63;;
25249;SDS011;13201;51.148;13.738;2024-03-23T02:13:51;17.60;;;11.35;;
25249;SDS011;13201;51.148;13.738;2024-03-23T02:16:17;22.10;;;12.25;;
25249;SDS011;13201;51.148;13.738;2024-03-23T02:18:43;18.27;;;11.85;;
25249;SDS011;13201;51.148;13.738;2024-03-23T02:21:08;20.90;;;13.02;;
25249;SDS011;13201;51.148;13.738;2024-03-23T02:23:34;22.42;;;12.80;;
25249;SDS011;13201;51.148;13.738;2024-03-23T02:26:00;23.98;;;14.18;;
25249;SDS011;13201;51.148;13.738;2024-03-23T02:28:25;23.38;;;14.70;;
25249;SDS011;13201;51.148;13.738;2024-03-23T02:30:51;23.92;;;15.13;;
25249;SDS011;13201;51.148;13.738;2024-03-23T02:33:17;24.70;;;14.67;;
25249;SDS011;13201;51.148;13.738;2024-03-23T02:35:43;23.77;;;14.57;;
25249;SDS011;13201;51.148;13.738;2024-03-23T02:38:10;22.60;;;15.38;;
25249;SDS011;13201;51.148;13.738;2024-03-23T02:40:35;26.27;;;15.70;;
25249;SDS011;13201;51.148;13.738;2024-03-23T02:43:02;25.67;;;16.05;;
25249;SDS011;13201;51.148;13.738;2024-03-23T02:45:28;23.10;;;14.95;;
25249;SDS011;13201;51.148;13.738;2024-03-23T02:47:54;27.17;;;15.90;;
25249;SDS011;13201;51.148;13.738;2024-03-23T02:50:20;23.73;;;14.73;;
25249;SDS011;13201;51.148;13.738;2024-03-23T02:52:46;22.17;;;15.18;;
25249;SDS011;13201;51.148;13.738;2024-03-23T02:55:12;26.15;;;17.35;;
25249;SDS011;13201;51.148;13.738;2024-03-23T02:57:38;31.88;;;17.05;;
25249;SDS011;13201;51.148;13.738;2024-03-23T03:00:04;27.13;;;16.48;;
25249;SDS011;13201;51.148;13.738;2024-03-23T03:02:31;31.15;;;17.10;;
25249;SDS011;13201;51.148;13.738;2024-03-23T03:04:57;29.95;;;17.20;;
25249;SDS011;13201;51.148;13.738;2024-03-23T03:07:23;27.20;;;17.73;;
25249;SDS011;13201;51.148;13.738;2024-03-23T03:09:48;33.55;;;17.65;;
25249;SDS011;13201;51.148;13.738;2024-03-23T03:12:14;29.80;;;17.85;;
25249;SDS011;13201;51.148;13.738;2024-03-23T03:14:39;28.30;;;17.00;;
25249;SDS011;13201;51.148;13.738;2024-03-23T03:17:05;27.25;;;16.80;;
25249;SDS011;13201;51.148;13.738;2024-03-23T03:19:31;27.55;;;17.15;;
25249;SDS011;13201;51.148;13.738;2024-03-23T03:21:57;29.87;;;16.07;;
25249;SDS011;13201;51.148;13.738;2024-03-23T03:24:23;25.07;;;15.83;;
25249;SDS011;13201;51.148;13.738;2024-03-23T03:26:49;25.45;;;16.15;;
25249;SDS011;13201;51.148;13.738;2024-03-23T03:29:15;27.65;;;16.25;;
25249;SDS011;13201;51.148;13.738;2024-03-23T03:31:41;28.40;;;16.67;;
25249;SDS011;13201;51.148;13.738;2024-03-23T03:34:07;28.25;;;17.48;;
25249;SDS011;13201;51.148;13.738;2024-03-23T03:36:33;30.48;;;18.40;;
25249;SDS011;13201;51.148;13.738;2024-03-23T03:38:59;30.13;;;18.15;;
25249;SDS011;13201;51.148;13.738;2024-03-23T03:41:25;31.98;;;19.33;;
25249;SDS011;13201;51.148;13.738;2024-03-23T03:43:50;35.63;;;20.02;;
25249;SDS011;13201;51.148;13.738;2024-03-23T03:46:16;32.55;;;19.73;;
25249;SDS011;13201;51.148;13.738;2024-03-23T03:48:42;33.83;;;20.02;;
25249;SDS011;13201;51.148;13.738;2024-03-23T03:51:10;31.65;;;18.42;;
25249;SDS011;13201;51.148;13.738;2024-03-23T03:53:35;33.22;;;18.85;;
25249;SDS011;13201;51.148;13.738;2024-03-23T03:56:01;28.05;;;17.45;;
25249;SDS011;13201;51.148;13.738;2024-03-23T03:58:27;30.00;;;18.02;;
25249;SDS011;13201;51.148;13.738;2024-03-23T04:00:53;31.13;;;19.13;;
25249;SDS011;13201;51.148;13.738;2024-03-23T04:03:19;31.45;;;19.58;;
25249;SDS011;13201;51.148;13.738;2024-03-23T04:05:49;35.67;;;21.40;;
25249;SDS011;13201;51.148;13.738;2024-03-23T04:08:19;37.30;;;22.00;;
25249;SDS011;13201;51.148;13.738;2024-03-23T04:10:45;37.00;;;23.63;;
25249;SDS011;13201;51.148;13.738;2024-03-23T04:13:11;39.47;;;21.92;;
25249;SDS011;13201;51.148;13.738;2024-03-23T04:15:37;36.33;;;22.38;;
25249;SDS011;13201;51.148;13.738;2024-03-23T04:18:03;38.25;;;21.98;;
25249;SDS011;13201;51.148;13.738;2024-03-23T04:20:29;38.83;;;22.15;;
25249;SDS011;13201;51.148;13.738;2024-03-23T04:22:54;36.40;;;21.90;;
25249;SDS011;13201;51.148;13.738;2024-03-23T04:25:20;44.95;;;22.88;;
25249;SDS011;13201;51.148;13.738;2024-03-23T04:27:46;38.88;;;22.67;;
25249;SDS011;13201;51.148;13.738;2024-03-23T04:30:11;41.17;;;23.17;;
25249;SDS011;13201;51.148;13.738;2024-03-23T04:32:38;45.97;;;24.37;;
25249;SDS011;13201;51.148;13.738;2024-03-23T04:35:04;45.35;;;23.77;;
25249;SDS011;13201;51.148;13.738;2024-03-23T04:37:36;46.10;;;24.42;;
25249;SDS011;13201;51.148;13.738;2024-03-23T04:40:03;46.15;;;24.08;;
25249;SDS011;13201;51.148;13.738;2024-03-23T04:42:29;45.30;;;25.10;;
25249;SDS011;13201;51.148;13.738;2024-03-23T04:44:56;45.47;;;25.13;;
25249;SDS011;13201;51.148;13.738;2024-03-23T04:47:21;53.55;;;26.35;;
25249;SDS011;13201;51.148;13.738;2024-03-23T04:49:47;46.05;;;26.25;;
25249;SDS011;13201;51.148;13.738;2024-03-23T04:52:13;49.75;;;26.27;;
25249;SDS011;13201;51.148;13.738;2024-03-23T04:54:39;48.47;;;26.70;;
25249;SDS011;13201;51.148;13.738;2024-03-23T04:57:05;50.80;;;27.53;;
25249;SDS011;13201;51.148;13.738;2024-03-23T04:59:31;51.55;;;27.88;;
25249;SDS011;13201;51.148;13.738;2024-03-23T05:01:57;54.90;;;27.05;;
25249;SDS011;13201;51.148;13.738;2024-03-23T05:04:23;47.53;;;25.88;;
25249;SDS011;13201;51.148;13.738;2024-03-23T05:06:48;48.08;;;26.13;;
25249;SDS011;13201;51.148;13.738;2024-03-23T05:09:14;49.25;;;25.75;;
25249;SDS011;13201;51.148;13.738;2024-03-23T05:11:40;51.30;;;26.70;;
25249;SDS011;13201;51.148;13.738;2024-03-23T05:14:09;49.97;;;27.70;;
25249;SDS011;13201;51.148;13.738;2024-03-23T05:16:36;53.22;;;27.40;;
25249;SDS011;13201;51.148;13.738;2024-03-23T05:19:01;52.35;;;27.15;;
25249;SDS011;13201;51.148;13.738;2024-03-23T05:21:27;50.80;;;28.83;;
25249;SDS011;13201;51.148;13.738;2024-03-23T05:23:56;50.72;;;28.75;;
25249;SDS011;13201;51.148;13.738;2024-03-23T05:26:22;51.13;;;26.92;;
25249;SDS011;13201;51.148;13.738;2024-03-23T05:28:48;48.45;;;26.83;;
25249;SDS011;13201;51.148;13.738;2024-03-23T05:31:22;47.30;;;26.13;;
25249;SDS011;13201;51.148;13.738;2024-03-23T05:33:52;45.92;;;26.05;;
25249;SDS011;13201;51.148;13.738;2024-03-23T05:36:17;45.10;;;25.90;;
25249;SDS011;13201;51.148;13.738;2024-03-23T05:38:43;48.63;;;25.35;;
25249;SDS011;13201;51.148;13.738;2024-03-23T05:41:09;43.00;;;25.10;;
25249;SDS011;13201;51.148;13.738;2024-03-23T05:43:35;44.22;;;26.02;;
25249;SDS011;13201;51.148;13.738;2024-03-23T05:46:00;46.33;;;26.48;;
25249;SDS011;13201;51.148;13.738;2024-03-23T05:48:27;47.83;;;26.83;;
25249;SDS011;13201;51.148;13.738;2024-03-23T05:50:53;43.65;;;25.50;;
25249;SDS011;13201;51.148;13.738;2024-03-23T05:53:19;43.28;;;25.70;;
25249;SDS011;13201;51.148;13.738;2024-03-23T05:55:48;43.95;;;25.83;;
25249;SDS011;13201;51.148;13.738;2024-03-23T05:58:17;43.17;;;25.70;;
25249;SDS011;13201;51.148;13.738;2024-03-23T06:00:43;42.13;;;25.10;;
25249;SDS011;13201;51.148;13.738;2024-03-23T06:03:09;45.20;;;26.45;;
25249;SDS011;13201;51.148;13.738;2024-03-23T06:05:38;39.55;;;24.55;;
25249;SDS011;13201;51.148;13.738;2024-03-23T06:08:04;43.72;;;25.38;;
25249;SDS011;13201;51.148;13.738;2024-03-23T06:12:57;41.40;;;24.80;;
25249;SDS011;13201;51.148;13.738;2024-03-23T06:15:24;41.58;;;23.65;;
25249;SDS011;13201;51.148;13.738;2024-03-23T06:17:52;39.90;;;23.35;;
25249;SDS011;13201;51.148;13.738;2024-03-23T06:20:17;39.92;;;23.33;;
25249;SDS011;13201;51.148;13.738;2024-03-23T06:22:43;36.70;;;22.65;;
25249;SDS011;13201;51.148;13.738;2024-03-23T06:25:09;37.38;;;22.75;;
25249;SDS011;13201;51.148;13.738;2024-03-23T06:27:34;36.17;;;22.60;;
25249;SDS011;13201;51.148;13.738;2024-03-23T06:30:00;33.92;;;21.45;;
25249;SDS011;13201;51.148;13.738;2024-03-23T06:32:27;38.65;;;23.55;;
25249;SDS011;13201;51.148;13.738;2024-03-23T06:34:54;38.03;;;23.42;;
25249;SDS011;13201;51.148;13.738;2024-03-23T06:37:20;38.65;;;23.33;;
25249;SDS011;13201;51.148;13.738;2024-03-23T06:39:46;39.38;;;23.25;;
25249;SDS011;13201;51.148;13.738;2024-03-23T06:42:12;35.55;;;22.35;;
25249;SDS011;13201;51.148;13.738;2024-03-23T06:44:38;35.03;;;21.35;;
25249;SDS011;13201;51.148;13.738;2024-03-23T06:47:04;32.17;;;21.13;;
25249;SDS011;13201;51.148;13.738;2024-03-23T06:49:30;33.55;;;21.20;;
25249;SDS011;13201;51.148;13.738;2024-03-23T06:51:56;36.80;;;21.50;;
25249;SDS011;13201;51.148;13.738;2024-03-23T06:54:21;32.15;;;20.95;;
25249;SDS011;13201;51.148;13.738;2024-03-23T06:56:47;35.17;;;20.50;;
25249;SDS011;13201;51.148;13.738;2024-03-23T06:59:13;32.05;;;20.52;;
25249;SDS011;13201;51.148;13.738;2024-03-23T07:01:38;32.70;;;20.88;;
25249;SDS011;13201;51.148;13.738;2024-03-23T07:04:04;33.58;;;20.90;;
25249;SDS011;13201;51.148;13.738;2024-03-23T07:06:30;34.03;;;20.98;;
25249;SDS011;13201;51.148;13.738;2024-03-23T07:08:56;35.22;;;20.80;;
25249;SDS011;13201;51.148;13.738;2024-03-23T07:11:22;32.63;;;20.73;;
25249;SDS011;13201;51.148;13.738;2024-03-23T07:13:54;32.28;;;20.67;;
25249;SDS011;13201;51.148;13.738;2024-03-23T07:16:20;36.08;;;21.63;;
25249;SDS011;13201;51.148;13.738;2024-03-23T07:18:46;33.17;;;21.00;;
25249;SDS011;13201;51.148;13.738;2024-03-23T07:21:11;33.28;;;20.42;;
25249;SDS011;13201;51.148;13.738;2024-03-23T07:23:37;43.13;;;23.17;;
25249;SDS011;13201;51.148;13.738;2024-03-23T07:26:07;36.72;;;23.00;;
25249;SDS011;13201;51.148;13.738;2024-03-23T07:28:33;43.05;;;23.55;;
25249;SDS011;13201;51.148;13.738;2024-03-23T07:31:07;42.35;;;24.75;;
25249;SDS011;13201;51.148;13.738;2024-03-23T07:33:34;123.78;;;69.00;;
25249;SDS011;13201;51.148;13.738;2024-03-23T07:38:27;42.83;;;24.95;;
25249;SDS011;13201;51.148;13.738;2024-03-23T07:41:09;44.57;;;25.50;;
25249;SDS011;13201;51.148;13.738;2024-03-23T07:43:45;41.53;;;24.60;;
25249;SDS011;13201;51.148;13.738;2024-03-23T07:46:12;41.38;;;24.80;;
25249;SDS011;13201;51.148;13.738;2024-03-23T07:48:38;43.78;;;25.20;;
25249;SDS011;13201;51.148;13.738;2024-03-23T07:51:08;37.22;;;23.65;;
25249;SDS011;13201;51.148;13.738;2024-03-23T07:53:42;38.63;;;23.08;;
25249;SDS011;13201;51.148;13.738;2024-03-23T07:56:09;41.53;;;25.42;;
25249;SDS011;13201;51.148;13.738;2024-03-23T07:58:35;40.88;;;24.65;;
25249;SDS011;13201;51.148;13.738;2024-03-23T08:01:08;42.25;;;23.27;;
25249;SDS011;13201;51.148;13.738;2024-03-23T08:03:36;36.80;;;22.10;;
25249;SDS011;13201;51.148;13.738;2024-03-23T08:08:42;37.13;;;22.90;;
25249;SDS011;13201;51.148;13.738;2024-03-23T08:11:09;38.25;;;23.13;;
25249;SDS011;13201;51.148;13.738;2024-03-23T08:13:35;42.72;;;24.15;;
25249;SDS011;13201;51.148;13.738;2024-03-23T08:16:04;37.92;;;22.35;;
25249;SDS011;13201;51.148;13.738;2024-03-23T08:18:30;36.88;;;21.95;;
25249;SDS011;13201;51.148;13.738;2024-03-23T08:20:59;39.20;;;22.60;;
25249;SDS011;13201;51.148;13.738;2024-03-23T08:23:33;38.35;;;21.88;;
25249;SDS011;13201;51.148;13.738;2024-03-23T08:26:01;36.85;;;22.10;;
25249;SDS011;13201;51.148;13.738;2024-03-23T08:30:55;30.70;;;19.17;;
25249;SDS011;13201;51.148;13.738;2024-03-23T08:33:21;36.05;;;20.25;;
25249;SDS011;13201;51.148;13.738;2024-03-23T08:35:57;29.67;;;18.92;;
25249;SDS011;13201;51.148;13.738;2024-03-23T08:38:28;35.97;;;19.88;;
25249;SDS011;13201;51.148;13.738;2024-03-23T08:41:10;32.97;;;20.95;;
25249;SDS011;13201;51.148;13.738;2024-03-23T08:43:37;64.40;;;36.90;;
25249;SDS011;13201;51.148;13.738;2024-03-23T08:46:09;30.73;;;19.88;;
25249;SDS011;13201;51.148;13.738;2024-03-23T08:48:37;32.60;;;19.48;;
25249;SDS011;13201;51.148;13.738;2024-03-23T08:51:05;31.52;;;19.58;;
25249;SDS011;13201;51.148;13.738;2024-03-23T08:53:32;35.08;;;23.25;;
25249;SDS011;13201;51.148;13.738;2024-03-23T08:56:00;43.40;;;27.23;;
25249;SDS011;13201;51.148;13.738;2024-03-23T08:58:26;30.70;;;21.08;;
25249;SDS011;13201;51.148;13.738;2024-03-23T09:00:53;31.75;;;19.88;;
25249;SDS011;13201;51.148;13.738;2024-03-23T09:03:26;24.08;;;14.93;;
25249;SDS011;13201;51.148;13.738;2024-03-23T09:05:51;24.67;;;16.73;;
25249;SDS011;13201;51.148;13.738;2024-03-23T09:08:17;23.85;;;15.02;;
25249;SDS011;13201;51.148;13.738;2024-03-23T09:10:43;24.97;;;16.37;;
25249;SDS011;13201;51.148;13.738;2024-03-23T09:13:09;25.15;;;16.08;;
25249;SDS011;13201;51.148;13.738;2024-03-23T09:15:36;32.00;;;19.33;;
25249;SDS011;13201;51.148;13.738;2024-03-23T09:20:28;25.20;;;15.47;;
25249;SDS011;13201;51.148;13.738;2024-03-23T09:22:54;31.25;;;19.98;;
25249;SDS011;13201;51.148;13.738;2024-03-23T09:25:20;26.30;;;16.73;;
25249;SDS011;13201;51.148;13.738;2024-03-23T09:27:46;25.50;;;16.25;;
25249;SDS011;13201;51.148;13.738;2024-03-23T09:30:12;34.88;;;21.48;;
25249;SDS011;13201;51.148;13.738;2024-03-23T09:32:38;24.33;;;15.90;;
25249;SDS011;13201;51.148;13.738;2024-03-23T09:35:04;22.67;;;14.37;;
25249;SDS011;13201;51.148;13.738;2024-03-23T09:37:30;23.15;;;15.18;;
25249;SDS011;13201;51.148;13.738;2024-03-23T09:39:56;22.90;;;13.43;;
25249;SDS011;13201;51.148;13.738;2024-03-23T09:42:21;22.88;;;13.70;;
25249;SDS011;13201;51.148;13.738;2024-03-23T09:44:47;22.65;;;13.00;;
25249;SDS011;13201;51.148;13.738;2024-03-23T09:47:16;21.02;;;11.18;;
25249;SDS011;13201;51.148;13.738;2024-03-23T09:49:42;17.83;;;9.17;;
25249;SDS011;13201;51.148;13.738;2024-03-23T09:52:08;10.73;;;5.50;;
25249;SDS011;13201;51.148;13.738;2024-03-23T09:54:34;9.13;;;3.95;;
25249;SDS011;13201;51.148;13.738;2024-03-23T09:57:00;6.57;;;2.80;;
25249;SDS011;13201;51.148;13.738;2024-03-23T09:59:26;5.50;;;3.10;;
25249;SDS011;13201;51.148;13.738;2024-03-23T10:01:55;6.38;;;2.85;;
25249;SDS011;13201;51.148;13.738;2024-03-23T10:07:10;5.82;;;1.88;;
25249;SDS011;13201;51.148;13.738;2024-03-23T10:09:40;5.03;;;1.58;;
25249;SDS011;13201;51.148;13.738;2024-03-23T10:12:09;1.77;;;0.75;;
25249;SDS011;13201;51.148;13.738;2024-03-23T10:14:36;3.45;;;1.30;;
25249;SDS011;13201;51.148;13.738;2024-03-23T10:17:15;1.55;;;0.70;;
25249;SDS011;13201;51.148;13.738;2024-03-23T10:19:45;0.85;;;0.45;;
25249;SDS011;13201;51.148;13.738;2024-03-23T10:22:13;3.07;;;1.13;;
25249;SDS011;13201;51.148;13.738;2024-03-23T10:24:44;1.13;;;0.80;;
25249;SDS011;13201;51.148;13.738;2024-03-23T10:27:15;1.23;;;0.57;;
25249;SDS011;13201;51.148;13.738;2024-03-23T10:29:43;0.65;;;0.43;;
25249;SDS011;13201;51.148;13.738;2024-03-23T10:32:12;1.75;;;1.08;;
25249;SDS011;13201;51.148;13.738;2024-03-23T10:34:39;6.78;;;3.58;;
25249;SDS011;13201;51.148;13.738;2024-03-23T10:37:05;0.98;;;0.57;;
25249;SDS011;13201;51.148;13.738;2024-03-23T10:39:38;2.60;;;1.40;;
25249;SDS011;13201;51.148;13.738;2024-03-23T10:42:06;1.70;;;0.93;;
25249;SDS011;13201;51.148;13.738;2024-03-23T10:44:33;0.98;;;0.32;;
25249;SDS011;13201;51.148;13.738;2024-03-23T10:47:00;0.90;;;0.40;;
25249;SDS011;13201;51.148;13.738;2024-03-23T10:49:28;2.08;;;1.00;;
25249;SDS011;13201;51.148;13.738;2024-03-23T10:52:03;0.55;;;0.38;;
25249;SDS011;13201;51.148;13.738;2024-03-23T10:54:32;0.43;;;0.30;;
25249;SDS011;13201;51.148;13.738;2024-03-23T10:57:12;0.82;;;0.52;;
25249;SDS011;13201;51.148;13.738;2024-03-23T10:59:42;0.25;;;0.25;;
25249;SDS011;13201;51.148;13.738;2024-03-23T11:02:18;0.25;;;0.20;;
25249;SDS011;13201;51.148;13.738;2024-03-23T11:07:31;1.40;;;0.70;;
25249;SDS011;13201;51.148;13.738;2024-03-23T11:09:58;1.00;;;0.82;;
25249;SDS011;13201;51.148;13.738;2024-03-23T11:15:06;0.88;;;0.40;;
25249;SDS011;13201;51.148;13.738;2024-03-23T11:17:36;0.50;;;0.45;;
25249;SDS011;13201;51.148;13.738;2024-03-23T11:20:03;0.60;;;0.45;;
25249;SDS011;13201;51.148;13.738;2024-03-23T11:22:46;0.43;;;0.40;;
25249;SDS011;13201;51.148;13.738;2024-03-23T11:25:15;1.65;;;0.30;;
25249;SDS011;13201;51.148;13.738;2024-03-23T11:27:43;0.55;;;0.30;;
25249;SDS011;13201;51.148;13.738;2024-03-23T11:30:14;0.80;;;0.40;;
25249;SDS011;13201;51.148;13.738;2024-03-23T11:32:41;1.70;;;1.38;;
25249;SDS011;13201;51.148;13.738;2024-03-23T11:35:08;4.07;;;0.60;;
25249;SDS011;13201;51.148;13.738;2024-03-23T11:37:37;1.02;;;0.30;;
25249;SDS011;13201;51.148;13.738;2024-03-23T11:40:20;0.47;;;0.30;;
25249;SDS011;13201;51.148;13.738;2024-03-23T11:42:46;0.50;;;0.38;;
25249;SDS011;13201;51.148;13.738;2024-03-23T11:45:20;0.40;;;0.35;;
25249;SDS011;13201;51.148;13.738;2024-03-23T11:47:46;0.65;;;0.40;;
25249;SDS011;13201;51.148;13.738;2024-03-23T11:50:18;0.80;;;0.40;;
25249;SDS011;13201;51.148;13.738;2024-03-23T11:52:44;0.50;;;0.50;;
25249;SDS011;13201;51.148;13.738;2024-03-23T11:55:10;1.05;;;0.35;;
25249;SDS011;13201;51.148;13.738;2024-03-23T11:57:36;1.27;;;0.43;;
25249;SDS011;13201;51.148;13.738;2024-03-23T12:00:01;1.27;;;0.45;;
25249;SDS011;13201;51.148;13.738;2024-03-23T12:02:44;0.35;;;0.35;;
25249;SDS011;13201;51.148;13.738;2024-03-23T12:05:14;0.40;;;0.30;;
25249;SDS011;13201;51.148;13.738;2024-03-23T12:07:43;0.55;;;0.40;;
25249;SDS011;13201;51.148;13.738;2024-03-23T12:10:08;1.25;;;0.50;;
25249;SDS011;13201;51.148;13.738;2024-03-23T12:12:34;0.52;;;0.40;;
25249;SDS011;13201;51.148;13.738;2024-03-23T12:15:03;2.67;;;1.10;;
25249;SDS011;13201;51.148;13.738;2024-03-23T12:17:31;0.40;;;0.40;;
25249;SDS011;13201;51.148;13.738;2024-03-23T12:19:57;0.88;;;0.40;;
25249;SDS011;13201;51.148;13.738;2024-03-23T12:22:23;1.20;;;0.63;;
25249;SDS011;13201;51.148;13.738;2024-03-23T12:24:50;0.65;;;0.47;;
25249;SDS011;13201;51.148;13.738;2024-03-23T12:27:16;1.27;;;0.57;;
25249;SDS011;13201;51.148;13.738;2024-03-23T12:29:41;0.82;;;0.55;;
25249;SDS011;13201;51.148;13.738;2024-03-23T12:32:10;1.40;;;0.80;;
25249;SDS011;13201;51.148;13.738;2024-03-23T12:34:37;0.88;;;0.65;;
25249;SDS011;13201;51.148;13.738;2024-03-23T12:37:03;1.30;;;0.70;;
25249;SDS011;13201;51.148;13.738;2024-03-23T12:39:28;0.77;;;0.57;;
25249;SDS011;13201;51.148;13.738;2024-03-23T12:41:54;1.98;;;0.60;;
25249;SDS011;13201;51.148;13.738;2024-03-23T12:44:20;0.63;;;0.63;;
25249;SDS011;13201;51.148;13.738;2024-03-23T12:46:46;1.05;;;0.60;;
25249;SDS011;13201;51.148;13.738;2024-03-23T12:49:12;0.98;;;0.63;;
25249;SDS011;13201;51.148;13.738;2024-03-23T12:51:37;0.93;;;0.70;;
25249;SDS011;13201;51.148;13.738;2024-03-23T12:54:03;1.03;;;0.80;;
25249;SDS011;13201;51.148;13.738;2024-03-23T12:56:29;1.73;;;1.40;;
25249;SDS011;13201;51.148;13.738;2024-03-23T12:58:55;0.83;;;0.70;;
25249;SDS011;13201;51.148;13.738;2024-03-23T13:01:22;0.70;;;0.70;;
25249;SDS011;13201;51.148;13.738;2024-03-23T13:03:49;0.70;;;0.70;;
25249;SDS011;13201;51.148;13.738;2024-03-23T13:06:15;1.98;;;0.85;;
25249;SDS011;13201;51.148;13.738;2024-03-23T13:08:44;1.42;;;1.13;;
25249;SDS011;13201;51.148;13.738;2024-03-23T13:11:14;1.27;;;1.13;;
25249;SDS011;13201;51.148;13.738;2024-03-23T13:13:41;1.38;;;1.27;;
25249;SDS011;13201;51.148;13.738;2024-03-23T13:16:07;2.77;;;1.50;;
25249;SDS011;13201;51.148;13.738;2024-03-23T13:18:33;2.00;;;1.77;;
25249;SDS011;13201;51.148;13.738;2024-03-23T13:20:59;2.17;;;1.05;;
25249;SDS011;13201;51.148;13.738;2024-03-23T13:23:25;3.63;;;1.53;;
25249;SDS011;13201;51.148;13.738;2024-03-23T13:25:54;3.42;;;1.50;;
25249;SDS011;13201;51.148;13.738;2024-03-23T13:28:21;2.42;;;1.30;;
25249;SDS011;13201;51.148;13.738;2024-03-23T13:30:54;3.13;;;1.42;;
25249;SDS011;13201;51.148;13.738;2024-03-23T13:33:20;5.28;;;1.30;;
25249;SDS011;13201;51.148;13.738;2024-03-23T13:35:50;2.72;;;1.27;;
25249;SDS011;13201;51.148;13.738;2024-03-23T13:38:22;5.22;;;1.77;;
25249;SDS011;13201;51.148;13.738;2024-03-23T13:43:21;3.80;;;1.50;;
25249;SDS011;13201;51.148;13.738;2024-03-23T13:45:48;4.20;;;1.52;;
25249;SDS011;13201;51.148;13.738;2024-03-23T13:48:18;6.50;;;1.70;;
25249;SDS011;13201;51.148;13.738;2024-03-23T13:51:01;1.50;;;0.93;;
25249;SDS011;13201;51.148;13.738;2024-03-23T13:53:28;2.35;;;1.25;;
25249;SDS011;13201;51.148;13.738;2024-03-23T13:55:54;4.10;;;1.43;;
25249;SDS011;13201;51.148;13.738;2024-03-23T13:58:20;4.25;;;1.60;;
25249;SDS011;13201;51.148;13.738;2024-03-23T14:00:45;3.38;;;1.42;;
25249;SDS011;13201;51.148;13.738;2024-03-23T14:03:12;3.90;;;1.50;;
25249;SDS011;13201;51.148;13.738;2024-03-23T14:05:39;2.55;;;1.15;;
25249;SDS011;13201;51.148;13.738;2024-03-23T14:10:31;3.37;;;1.40;;
25249;SDS011;13201;51.148;13.738;2024-03-23T14:12:57;3.33;;;1.60;;
25249;SDS011;13201;51.148;13.738;2024-03-23T14:15:25;4.82;;;1.58;;
25249;SDS011;13201;51.148;13.738;2024-03-23T14:17:51;3.65;;;1.50;;
25249;SDS011;13201;51.148;13.738;2024-03-23T14:20:17;7.03;;;2.10;;
25249;SDS011;13201;51.148;13.738;2024-03-23T14:22:42;4.85;;;1.60;;
25249;SDS011;13201;51.148;13.738;2024-03-23T14:25:09;4.85;;;1.40;;
25249;SDS011;13201;51.148;13.738;2024-03-23T14:27:35;2.53;;;1.20;;
25249;SDS011;13201;51.148;13.738;2024-03-23T14:30:04;5.20;;;1.55;;
25249;SDS011;13201;51.148;13.738;2024-03-23T14:32:30;4.18;;;1.42;;
25249;SDS011;13201;51.148;13.738;2024-03-23T14:35:02;3.95;;;1.30;;
25249;SDS011;13201;51.148;13.738;2024-03-23T14:37:28;5.50;;;1.35;;
25249;SDS011;13201;51.148;13.738;2024-03-23T14:39:57;6.68;;;1.40;;
25249;SDS011;13201;51.148;13.738;2024-03-23T14:42:23;4.03;;;1.23;;
25249;SDS011;13201;51.148;13.738;2024-03-23T14:44:49;5.47;;;1.27;;
25249;SDS011;13201;51.148;13.738;2024-03-23T14:47:16;6.50;;;1.48;;
25249;SDS011;13201;51.148;13.738;2024-03-23T14:49:43;5.10;;;1.58;;
25249;SDS011;13201;51.148;13.738;2024-03-23T14:52:14;5.47;;;1.42;;
25249;SDS011;13201;51.148;13.738;2024-03-23T14:54:40;4.50;;;1.40;;
25249;SDS011;13201;51.148;13.738;2024-03-23T14:57:06;5.35;;;1.38;;
25249;SDS011;13201;51.148;13.738;2024-03-23T14:59:34;9.05;;;1.98;;
25249;SDS011;13201;51.148;13.738;2024-03-23T15:02:00;6.57;;;2.00;;
25249;SDS011;13201;51.148;13.738;2024-03-23T15:04:26;8.63;;;1.75;;
25249;SDS011;13201;51.148;13.738;2024-03-23T15:06:52;5.40;;;1.58;;
25249;SDS011;13201;51.148;13.738;2024-03-23T15:09:17;3.95;;;1.73;;
25249;SDS011;13201;51.148;13.738;2024-03-23T15:11:43;7.40;;;1.80;;
25249;SDS011;13201;51.148;13.738;2024-03-23T15:14:09;4.82;;;1.70;;
25249;SDS011;13201;51.148;13.738;2024-03-23T15:16:36;6.18;;;2.42;;
25249;SDS011;13201;51.148;13.738;2024-03-23T15:19:01;6.43;;;1.70;;
25249;SDS011;13201;51.148;13.738;2024-03-23T15:21:27;3.70;;;1.95;;
25249;SDS011;13201;51.148;13.738;2024-03-23T15:23:53;7.13;;;2.10;;
25249;SDS011;13201;51.148;13.738;2024-03-23T15:26:19;8.23;;;2.03;;
25249;SDS011;13201;51.148;13.738;2024-03-23T15:28:47;4.50;;;2.03;;
25249;SDS011;13201;51.148;13.738;2024-03-23T15:31:23;5.63;;;2.00;;
25249;SDS011;13201;51.148;13.738;2024-03-23T15:33:49;5.13;;;1.50;;
25249;SDS011;13201;51.148;13.738;2024-03-23T15:36:15;4.20;;;2.08;;
25249;SDS011;13201;51.148;13.738;2024-03-23T15:38:40;7.90;;;1.90;;
25249;SDS011;13201;51.148;13.738;2024-03-23T15:43:33;5.27;;;1.83;;
25249;SDS011;13201;51.148;13.738;2024-03-23T15:45:59;7.88;;;2.30;;
25249;SDS011;13201;51.148;13.738;2024-03-23T15:48:30;5.10;;;1.80;;
25249;SDS011;13201;51.148;13.738;2024-03-23T15:50:57;8.23;;;2.20;;
25249;SDS011;13201;51.148;13.738;2024-03-23T15:53:24;7.63;;;2.47;;
25249;SDS011;13201;51.148;13.738;2024-03-23T15:58:20;6.53;;;2.55;;
25249;SDS011;13201;51.148;13.738;2024-03-23T16:00:57;4.10;;;1.75;;
25249;SDS011;13201;51.148;13.738;2024-03-23T16:03:23;5.38;;;2.10;;
25249;SDS011;13201;51.148;13.738;2024-03-23T16:05:50;4.87;;;2.50;;